Time;durP1;ratioP1;P1;durP2;ratioP2;P2;SDS_P1;SDS_P2;PMS_P1;PMS_P2;Temp;Humidity;BMP_temperature;BMP_pressure;BME280_temperature;BME280_humidity;BME280_pressure;Samples;Min_cycle;Max_cycle;Signal;HPM_P1;HPM_P2
2021/06/17 00:00:54;;;;;;;4.50;3.37;;;22.20;72.50;;;;;;5055831;28;20453;-78
2021/06/17 00:03:21;;;;;;;3.27;3.07;;;22.20;72.50;;;;;;5055375;28;20838;-79
2021/06/17 00:05:48;;;;;;;3.27;3.00;;;22.20;72.40;;;;;;5055469;28;20947;-79
2021/06/17 00:08:15;;;;;;;3.20;3.00;;;22.20;72.30;;;;;;5055617;28;20489;-79
2021/06/17 00:10:44;;;;;;;3.13;2.90;;;22.10;75.20;;;;;;5055485;28;20963;-78
2021/06/17 00:13:13;;;;;;;2.70;2.57;;;22.10;75.40;;;;;;5055565;28;20476;-79
2021/06/17 00:15:44;;;;;;;2.77;2.57;;;22.00;78.10;;;;;;5055566;28;20445;-79
2021/06/17 00:18:12;;;;;;;2.90;2.70;;;21.90;78.00;;;;;;5055259;28;20897;-79
2021/06/17 00:20:40;;;;;;;2.90;2.70;;;21.80;77.90;;;;;;5055111;28;20948;-80
2021/06/17 00:23:07;;;;;;;4.87;3.90;;;21.70;79.00;;;;;;5055053;28;20472;-79
2021/06/17 00:25:34;;;;;;;4.07;3.67;;;21.50;82.20;;;;;;5055035;28;20453;-80
2021/06/17 00:28:01;;;;;;;3.20;2.90;;;21.40;83.80;;;;;;5055240;28;20481;-80
2021/06/17 00:30:28;;;;;;;3.47;3.17;;;21.30;84.00;;;;;;5055328;28;20454;-80
2021/06/17 00:32:57;;;;;;;3.60;3.30;;;21.20;85.00;;;;;;5054847;28;20977;-80
2021/06/17 00:35:25;;;;;;;5.53;3.87;;;21.00;86.50;;;;;;5054880;28;20438;-80
2021/06/17 00:37:52;;;;;;;5.83;3.67;;;20.90;86.90;;;;;;5055698;28;20454;-80
2021/06/17 00:40:20;;;;;;;3.07;2.87;;;20.90;87.40;;;;;;5054561;28;20988;-80
2021/06/17 00:42:48;;;;;;;4.40;3.10;;;20.80;87.90;;;;;;5054668;28;20482;-80
2021/06/17 00:45:18;;;;;;;3.73;3.40;;;20.70;88.20;;;;;;5054967;28;20453;-79
2021/06/17 00:47:45;;;;;;;4.50;4.10;;;20.70;88.60;;;;;;5054627;28;20477;-80
2021/06/17 00:50:14;;;;;;;3.07;2.87;;;20.50;90.00;;;;;;5054924;28;20438;-80
2021/06/17 00:52:43;;;;;;;3.40;3.10;;;20.50;90.10;;;;;;5054638;28;20464;-80
2021/06/17 00:55:11;;;;;;;4.40;4.10;;;20.40;90.30;;;;;;5054680;28;20487;-80
2021/06/17 00:57:39;;;;;;;4.13;3.83;;;20.40;90.00;;;;;;5054462;28;20505;-79
2021/06/17 01:00:07;;;;;;;3.30;3.10;;;20.30;90.00;;;;;;5054415;28;20457;-80
2021/06/17 01:02:34;;;;;;;4.20;3.90;;;20.30;90.90;;;;;;5054556;28;20469;-80
2021/06/17 01:05:01;;;;;;;3.83;3.53;;;20.30;90.60;;;;;;5054480;28;20438;-80
2021/06/17 01:07:35;;;;;;;3.50;3.30;;;20.30;90.30;;;;;;5054231;28;20531;-80
2021/06/17 01:10:10;;;;;;;3.87;3.60;;;20.30;90.90;;;;;;5053979;28;20406;-80
2021/06/17 01:12:51;;;;;;;3.17;3.07;;;20.20;90.30;;;;;;5054110;28;20473;-80
2021/06/17 01:15:21;;;;;;;3.43;3.13;;;20.20;90.30;;;;;;5055062;28;20804;-80
2021/06/17 01:17:52;;;;;;;3.43;3.23;;;20.20;90.80;;;;;;5054434;28;20429;-80
2021/06/17 01:20:27;;;;;;;3.20;3.10;;;20.20;90.30;;;;;;5054264;28;20422;-80
2021/06/17 01:23:09;;;;;;;3.27;3.07;;;20.10;90.60;;;;;;5054081;28;20453;-80
2021/06/17 01:26:03;;;;;;;3.40;3.20;;;20.10;90.80;;;;;;5053923;28;20441;-79
2021/06/17 01:28:32;;;;;;;3.47;3.27;;;20.00;91.20;;;;;;5047422;28;21027;-79
2021/06/17 01:31:02;;;;;;;3.90;3.50;;;20.00;91.50;;;;;;5053843;28;20434;-79
2021/06/17 01:33:34;;;;;;;4.67;3.80;;;19.90;91.80;;;;;;5053667;28;20830;-79
2021/06/17 01:36:04;;;;;;;4.77;3.93;;;19.90;92.40;;;;;;5053763;28;20434;-78
2021/06/17 01:38:33;;;;;;;3.37;3.13;;;19.80;92.50;;;;;;5053795;28;20441;-79
2021/06/17 01:41:02;;;;;;;3.30;3.07;;;19.80;92.10;;;;;;5053888;28;20418;-79
2021/06/17 01:43:30;;;;;;;2.93;2.73;;;19.80;92.30;;;;;;5053739;28;20492;-79
2021/06/17 01:45:59;;;;;;;7.93;3.67;;;19.80;92.40;;;;;;5053748;28;20461;-79
2021/06/17 01:48:27;;;;;;;3.30;3.10;;;19.80;92.30;;;;;;5053366;28;21000;-79
2021/06/17 01:50:56;;;;;;;3.47;3.17;;;19.80;92.80;;;;;;5053517;28;20441;-79
2021/06/17 01:53:24;;;;;;;4.33;3.40;;;19.70;92.70;;;;;;5053633;28;20481;-79
2021/06/17 01:55:57;;;;;;;3.87;2.90;;;19.70;92.50;;;;;;5053638;28;20456;-79
2021/06/17 01:58:26;;;;;;;2.97;2.77;;;19.60;92.30;;;;;;5053355;28;20971;-79
2021/06/17 02:00:56;;;;;;;2.80;2.60;;;19.60;92.00;;;;;;5053565;28;20536;-78
2021/06/17 02:03:24;;;;;;;3.10;2.90;;;19.60;91.50;;;;;;5053117;28;20465;-79
2021/06/17 02:05:52;;;;;;;2.70;2.50;;;19.60;91.90;;;;;;5053514;28;20446;-79
2021/06/17 02:08:20;;;;;;;3.30;3.10;;;19.60;92.10;;;;;;5053095;28;20480;-79
2021/06/17 02:10:48;;;;;;;2.73;2.53;;;19.60;91.70;;;;;;5053443;28;20452;-79
2021/06/17 02:13:17;;;;;;;3.37;3.17;;;19.60;91.90;;;;;;5053100;28;20508;-79
2021/06/17 02:15:46;;;;;;;4.03;2.80;;;19.60;91.70;;;;;;5053123;28;20997;-79
2021/06/17 02:18:15;;;;;;;2.77;2.67;;;19.60;92.00;;;;;;5053346;28;20457;-79
2021/06/17 02:20:43;;;;;;;4.70;3.50;;;19.50;92.50;;;;;;5052397;28;20454;-79
2021/06/17 02:23:13;;;;;;;3.70;2.73;;;19.50;92.50;;;;;;5053003;28;20453;-82
2021/06/17 02:25:40;;;;;;;3.60;3.30;;;19.50;92.50;;;;;;5053296;28;20438;-82
2021/06/17 02:28:10;;;;;;;3.20;2.93;;;19.50;92.10;;;;;;5053144;28;20492;-82
2021/06/17 02:30:40;;;;;;;3.63;3.27;;;19.50;92.10;;;;;;5053092;28;20465;-82
2021/06/17 02:33:11;;;;;;;4.80;3.20;;;19.50;92.60;;;;;;5053037;28;21000;-82
2021/06/17 02:35:42;;;;;;;2.80;2.60;;;19.50;93.30;;;;;;5053144;28;20426;-82
2021/06/17 02:38:10;;;;;;;3.20;3.00;;;19.50;93.50;;;;;;5052893;28;20905;-82
2021/06/17 02:40:44;;;;;;;6.93;3.23;;;19.40;93.50;;;;;;5052609;28;21004;-82
2021/06/17 02:43:15;;;;;;;4.17;3.87;;;19.40;93.40;;;;;;5052899;28;20457;-82
2021/06/17 02:45:43;;;;;;;3.37;3.07;;;19.40;93.70;;;;;;5052823;28;20434;-82
2021/06/17 02:48:11;;;;;;;3.50;3.20;;;19.40;93.30;;;;;;5052904;28;20559;-82
2021/06/17 02:50:42;;;;;;;3.83;3.53;;;19.40;93.80;;;;;;5053017;28;20457;-82
2021/06/17 02:53:09;;;;;;;4.03;3.73;;;19.30;94.00;;;;;;5052678;28;20472;-82
2021/06/17 02:55:36;;;;;;;3.40;3.10;;;19.30;94.00;;;;;;5052974;28;20472;-82
2021/06/17 02:58:17;;;;;;;3.03;2.83;;;19.30;94.20;;;;;;5052941;28;20453;-82
2021/06/17 03:00:50;;;;;;;3.17;2.97;;;19.20;94.30;;;;;;5052748;28;20819;-82
2021/06/17 03:03:22;;;;;;;5.27;2.93;;;19.20;94.20;;;;;;5052857;28;20957;-82
2021/06/17 03:05:55;;;;;;;3.27;3.07;;;19.20;94.50;;;;;;5052939;28;20430;-82
2021/06/17 03:08:27;;;;;;;4.53;3.17;;;19.10;94.70;;;;;;5053363;28;20469;-82
2021/06/17 03:10:58;;;;;;;3.60;3.30;;;19.10;95.00;;;;;;5052909;28;20436;-80
2021/06/17 03:13:29;;;;;;;3.67;2.77;;;19.10;95.30;;;;;;5052469;28;21011;-80
2021/06/17 03:15:55;;;;;;;3.47;3.20;;;19.00;95.50;;;;;;5052898;28;20437;-82
2021/06/17 03:18:23;;;;;;;3.37;3.17;;;19.00;95.60;;;;;;5052392;28;20822;-82
2021/06/17 03:20:53;;;;;;;3.37;3.17;;;19.00;96.40;;;;;;5052408;28;20446;-82
2021/06/17 03:23:21;;;;;;;3.50;3.10;;;18.90;97.10;;;;;;5052672;28;20836;-82
2021/06/17 03:25:52;;;;;;;2.90;2.70;;;18.90;96.00;;;;;;5052634;28;20469;-82
2021/06/17 03:28:20;;;;;;;4.83;3.40;;;19.00;95.60;;;;;;5052625;28;20473;-82
2021/06/17 03:30:50;;;;;;;3.30;3.10;;;18.90;95.30;;;;;;5052694;28;20937;-82
2021/06/17 03:33:20;;;;;;;3.37;3.10;;;18.90;95.60;;;;;;5055469;28;20469;-82
2021/06/17 03:35:48;;;;;;;3.27;3.03;;;18.90;95.80;;;;;;5056364;28;20437;-82
2021/06/17 03:38:16;;;;;;;3.40;3.20;;;18.90;96.60;;;;;;5056172;28;20446;-81
2021/06/17 03:40:46;;;;;;;2.77;2.60;;;19.00;97.40;;;;;;5055763;28;21011;-82
2021/06/17 03:43:14;;;;;;;3.70;3.40;;;19.00;97.80;;;;;;5056692;28;20469;-82
2021/06/17 03:45:42;;;;;;;3.27;3.07;;;19.00;98.50;;;;;;5056185;28;20454;-85
2021/06/17 03:48:10;;;;;;;3.33;3.03;;;19.00;98.20;;;;;;5056051;28;20498;-82
2021/06/17 03:50:37;;;;;;;3.70;3.40;;;19.10;99.20;;;;;;5055907;28;20458;-80
2021/06/17 03:53:05;;;;;;;4.17;3.70;;;19.10;98.40;;;;;;5055616;28;20470;-80
2021/06/17 03:55:34;;;;;;;4.53;3.80;;;19.20;98.00;;;;;;5056352;28;20469;-80
2021/06/17 03:58:01;;;;;;;3.40;3.10;;;19.20;98.60;;;;;;5055906;28;20448;-80
2021/06/17 04:00:31;;;;;;;3.90;3.40;;;19.30;98.90;;;;;;5055817;28;20469;-80
2021/06/17 04:02:59;;;;;;;4.40;3.60;;;19.30;98.90;;;;;;5055751;28;20473;-80
2021/06/17 04:05:25;;;;;;;3.93;3.67;;;19.40;99.60;;;;;;5055506;28;20430;-80
2021/06/17 04:07:57;;;;;;;3.53;3.30;;;19.40;99.90;;;;;;5055631;28;20485;-80
2021/06/17 04:10:25;;;;;;;5.10;3.50;;;19.40;99.90;;;;;;5055977;28;20415;-80
2021/06/17 04:12:57;;;;;;;4.27;3.23;;;19.40;99.80;;;;;;5055438;28;20458;-80
2021/06/17 04:15:25;;;;;;;4.63;3.30;;;19.40;99.90;;;;;;5055408;28;20417;-80
2021/06/17 04:17:55;;;;;;;3.37;3.17;;;19.50;99.90;;;;;;5055302;28;20438;-80
2021/06/17 04:20:24;;;;;;;3.30;3.10;;;19.50;99.90;;;;;;5055450;28;20450;-80
2021/06/17 04:22:53;;;;;;;3.47;3.27;;;19.50;99.90;;;;;;5055347;28;20466;-79
2021/06/17 04:25:22;;;;;;;4.03;3.73;;;19.50;99.90;;;;;;5055331;28;20461;-80
2021/06/17 04:27:51;;;;;;;3.60;3.30;;;19.50;99.90;;;;;;5055214;28;20485;-80
2021/06/17 04:30:21;;;;;;;4.07;3.67;;;19.50;99.90;;;;;;5055037;28;20434;-79
2021/06/17 04:32:50;;;;;;;4.10;3.80;;;19.50;99.90;;;;;;5055145;28;20561;-80
2021/06/17 04:35:19;;;;;;;3.60;3.40;;;19.50;99.90;;;;;;5055181;28;20552;-80
2021/06/17 04:37:47;;;;;;;3.73;3.43;;;19.50;99.90;;;;;;5055102;28;20840;-80
2021/06/17 04:40:16;;;;;;;3.63;3.43;;;19.60;99.90;;;;;;5054657;28;20474;-80
2021/06/17 04:42:43;;;;;;;3.20;3.00;;;19.60;99.90;;;;;;5054365;28;20454;-80
2021/06/17 04:45:12;;;;;;;3.83;3.60;;;19.70;99.90;;;;;;5054182;28;20816;-80
2021/06/17 04:47:41;;;;;;;4.10;3.80;;;19.70;99.90;;;;;;5054795;28;20819;-85
2021/06/17 04:50:09;;;;;;;3.60;3.40;;;19.70;99.90;;;;;;5054669;28;20442;-85
2021/06/17 04:52:39;;;;;;;3.90;3.60;;;19.80;99.90;;;;;;5054563;28;20993;-85
2021/06/17 04:55:07;;;;;;;4.07;3.77;;;19.80;99.90;;;;;;5054975;28;20422;-85
2021/06/17 04:57:34;;;;;;;4.20;3.90;;;19.90;99.90;;;;;;5054823;28;20441;-81
2021/06/17 05:00:00;;;;;;;4.30;4.00;;;19.90;99.90;;;;;;5054700;28;20434;-81
2021/06/17 05:02:27;;;;;;;4.20;3.90;;;20.00;99.90;;;;;;5054982;28;20466;-81
2021/06/17 05:04:55;;;;;;;4.53;4.10;;;20.00;99.90;;;;;;5054629;28;20450;-81
2021/06/17 05:07:40;;;;;;;4.37;4.07;;;20.10;99.90;;;;;;5054626;28;20453;-81
2021/06/17 05:13:06;;;;;;;4.13;3.93;;;20.20;99.90;;;;;;4993345;28;20946;-82
2021/06/17 05:15:33;;;;;;;3.77;3.57;;;20.30;99.90;;;;;;4993363;28;20548;-82
2021/06/17 05:18:00;;;;;;;4.13;3.80;;;20.30;99.90;;;;;;5019659;28;20465;-82
2021/06/17 05:20:28;;;;;;;3.93;3.50;;;20.40;99.90;;;;;;5054320;28;20449;-82
2021/06/17 05:22:56;;;;;;;4.20;3.90;;;20.40;99.90;;;;;;5054168;28;20470;-82
2021/06/17 05:25:23;;;;;;;4.13;3.87;;;20.50;99.90;;;;;;5054213;28;20485;-82
2021/06/17 05:27:49;;;;;;;4.50;4.13;;;20.50;99.90;;;;;;5054165;28;20466;-82
2021/06/17 05:30:17;;;;;;;3.90;3.50;;;20.60;99.90;;;;;;5054216;28;20454;-82
2021/06/17 05:32:44;;;;;;;3.73;3.43;;;20.70;99.90;;;;;;5053734;28;20469;-82
2021/06/17 05:35:12;;;;;;;3.83;3.40;;;20.80;99.90;;;;;;5054656;28;20808;-86
2021/06/17 05:37:40;;;;;;;4.90;3.43;;;20.90;99.90;;;;;;5054092;28;20449;-86
2021/06/17 05:40:08;;;;;;;3.90;3.60;;;21.00;99.90;;;;;;5053751;28;21007;-85
2021/06/17 05:42:34;;;;;;;2.90;2.80;;;21.10;99.90;;;;;;5053619;28;20469;-86
2021/06/17 05:45:01;;;;;;;3.77;3.30;;;21.30;99.90;;;;;;5053679;28;20795;-86
2021/06/17 05:47:28;;;;;;;4.90;3.53;;;21.40;99.90;;;;;;5053778;28;20453;-86
2021/06/17 05:49:55;;;;;;;4.23;3.83;;;21.60;99.90;;;;;;5053822;28;20492;-86
2021/06/17 05:52:21;;;;;;;3.50;3.30;;;21.70;99.90;;;;;;5054191;28;20476;-86
2021/06/17 05:54:49;;;;;;;3.57;3.37;;;21.80;99.90;;;;;;5053596;28;20457;-86
2021/06/17 05:57:16;;;;;;;3.20;3.00;;;22.00;99.90;;;;;;5053725;28;20440;-86
2021/06/17 05:59:43;;;;;;;3.00;2.80;;;22.20;99.90;;;;;;5053987;28;20448;-85
2021/06/17 06:02:10;;;;;;;3.10;3.00;;;22.40;99.90;;;;;;5053583;28;20465;-86
2021/06/17 06:04:37;;;;;;;3.50;3.27;;;22.60;99.90;;;;;;5053374;28;20920;-86
2021/06/17 06:07:04;;;;;;;3.70;3.50;;;22.80;99.80;;;;;;5053518;28;20457;-85
2021/06/17 06:09:31;;;;;;;3.20;3.00;;;23.10;98.90;;;;;;5053155;28;20477;-86
2021/06/17 06:11:59;;;;;;;3.10;3.00;;;23.40;98.80;;;;;;5053487;28;20231;-86
2021/06/17 06:14:26;;;;;;;3.50;3.30;;;23.60;98.30;;;;;;5053535;28;20195;-86
2021/06/17 06:16:53;;;;;;;3.30;3.10;;;24.00;97.00;;;;;;5053463;28;20199;-86
2021/06/17 06:19:20;;;;;;;3.40;3.20;;;24.30;97.70;;;;;;5053416;28;20281;-86
2021/06/17 06:21:47;;;;;;;3.38;3.17;;;24.60;96.80;;;;;;5053431;28;20202;-87
2021/06/17 06:24:13;;;;;;;3.22;3.03;;;24.90;95.20;;;;;;5053175;28;20677;-87
2021/06/17 06:26:40;;;;;;;3.60;3.40;;;25.40;93.70;;;;;;5053071;28;20195;-86
2021/06/17 06:29:08;;;;;;;3.00;2.80;;;25.90;92.60;;;;;;5052993;28;20690;-87
2021/06/17 06:31:35;;;;;;;2.97;2.78;;;26.10;91.30;;;;;;5053250;28;20207;-87
2021/06/17 06:34:02;;;;;;;3.05;2.85;;;26.50;90.90;;;;;;5053248;28;20203;-87
2021/06/17 06:36:28;;;;;;;3.53;3.22;;;27.00;87.90;;;;;;5053259;28;20222;-87
2021/06/17 06:38:55;;;;;;;2.72;2.58;;;27.30;83.10;;;;;;5052927;28;20249;-86
2021/06/17 06:41:22;;;;;;;3.53;3.22;;;27.40;83.80;;;;;;5053177;28;20194;-87
2021/06/17 06:43:49;;;;;;;3.60;3.40;;;27.50;82.80;;;;;;5052801;28;20745;-86
2021/06/17 06:46:17;;;;;;;3.25;3.03;;;27.60;84.20;;;;;;5053240;28;20208;-87
2021/06/17 06:48:44;;;;;;;3.38;3.17;;;27.60;85.60;;;;;;5053122;28;20223;-87
2021/06/17 06:51:11;;;;;;;4.05;3.63;;;27.90;84.40;;;;;;5052775;28;20570;-87
2021/06/17 06:53:38;;;;;;;3.42;3.28;;;28.20;81.60;;;;;;5052802;28;20219;-87
2021/06/17 06:56:05;;;;;;;3.47;3.28;;;28.30;79.90;;;;;;5053084;28;20201;-87
2021/06/17 06:58:32;;;;;;;3.40;3.20;;;28.40;83.70;;;;;;5053557;28;20545;-87
2021/06/17 07:00:58;;;;;;;2.92;2.83;;;28.30;80.50;;;;;;5053037;28;20237;-87
2021/06/17 07:03:26;;;;;;;3.38;3.17;;;28.20;80.50;;;;;;5052749;28;20621;-87
2021/06/17 07:05:53;;;;;;;4.15;3.15;;;28.00;82.20;;;;;;5053055;28;20206;-87
2021/06/17 07:08:20;;;;;;;3.10;3.00;;;27.80;83.70;;;;;;5056418;28;20612;-86
2021/06/17 07:10:48;;;;;;;3.20;2.88;;;27.80;83.90;;;;;;5057093;28;20305;-86
2021/06/17 07:13:15;;;;;;;4.07;2.60;;;27.80;83.80;;;;;;5056780;28;20226;-86
2021/06/17 07:15:42;;;;;;;3.75;3.47;;;27.80;84.00;;;;;;5056968;28;20214;-86
2021/06/17 07:18:09;;;;;;;3.30;3.20;;;27.80;84.80;;;;;;5056768;28;20210;-87
2021/06/17 07:20:37;;;;;;;3.00;2.90;;;27.80;84.90;;;;;;5056769;28;20285;-87
2021/06/17 07:23:04;;;;;;;3.38;3.17;;;28.00;85.30;;;;;;5056644;28;20229;-86
2021/06/17 07:25:31;;;;;;;2.92;2.72;;;28.20;84.60;;;;;;5056615;28;20186;-86
2021/06/17 07:27:58;;;;;;;4.63;3.15;;;28.50;82.80;;;;;;5056378;28;20630;-87
2021/06/17 07:30:25;;;;;;;3.03;2.92;;;28.60;80.40;;;;;;5056640;28;20214;-87
2021/06/17 07:32:52;;;;;;;3.55;3.30;;;28.90;82.30;;;;;;5056219;28;20219;-86
2021/06/17 07:35:19;;;;;;;3.00;2.90;;;29.20;79.50;;;;;;5056470;28;20206;-87
2021/06/17 07:37:47;;;;;;;3.63;3.40;;;29.80;78.10;;;;;;5056481;28;20180;-86
2021/06/17 07:40:15;;;;;;;3.13;3.03;;;30.30;77.40;;;;;;5055962;28;20223;-87
2021/06/17 07:42:42;;;;;;;3.53;3.33;;;30.70;74.00;;;;;;5056182;28;20219;-84
2021/06/17 07:45:11;;;;;;;2.50;2.40;;;30.80;70.20;;;;;;5056108;28;20188;-84
2021/06/17 07:47:38;;;;;;;3.38;3.08;;;31.10;68.40;;;;;;5056288;28;20187;-87
2021/06/17 07:50:08;;;;;;;3.28;3.08;;;31.50;65.70;;;;;;5056060;28;20674;-87
2021/06/17 07:52:35;;;;;;;3.00;2.80;;;31.80;62.20;;;;;;5055947;28;20225;-87
2021/06/17 07:55:04;;;;;;;3.60;3.40;;;32.20;62.50;;;;;;5056094;28;20181;-87
2021/06/17 07:57:31;;;;;;;3.17;2.95;;;32.30;60.60;;;;;;5056021;28;20194;-87
2021/06/17 07:59:58;;;;;;;3.30;2.78;;;32.50;58.30;;;;;;5055755;28;20635;-87
2021/06/17 08:02:26;;;;;;;3.00;2.67;;;33.10;56.60;;;;;;5055889;28;20223;-85
2021/06/17 08:04:53;;;;;;;2.97;2.78;;;33.60;55.90;;;;;;5055971;28;20200;-87
2021/06/17 08:07:19;;;;;;;3.00;2.80;;;34.40;53.50;;;;;;5055826;28;20195;-87
2021/06/17 08:09:46;;;;;;;3.13;2.92;;;35.20;52.00;;;;;;5055695;28;20210;-86
2021/06/17 08:12:14;;;;;;;2.95;2.75;;;35.90;49.90;;;;;;5055678;28;20223;-87
2021/06/17 08:14:41;;;;;;;2.80;2.70;;;37.10;49.40;;;;;;5056126;28;20193;-87
2021/06/17 08:17:08;;;;;;;2.83;2.72;;;38.10;47.20;;;;;;5055377;28;20661;-86
2021/06/17 08:19:35;;;;;;;2.67;2.58;;;38.40;45.20;;;;;;5055594;28;20179;-87
2021/06/17 08:22:04;;;;;;;2.55;2.45;;;38.60;43.90;;;;;;5055530;28;20244;-87
2021/06/17 08:24:31;;;;;;;2.53;2.42;;;38.30;43.30;;;;;;5055231;28;20639;-87
2021/06/17 08:26:58;;;;;;;2.70;2.60;;;38.50;42.90;;;;;;5055468;28;20195;-87
2021/06/17 08:29:26;;;;;;;2.92;2.72;;;37.90;42.30;;;;;;5055314;28;20211;-88
2021/06/17 08:31:53;;;;;;;2.30;2.20;;;38.00;43.00;;;;;;5055902;28;20625;-87
2021/06/17 08:34:20;;;;;;;2.58;2.47;;;38.10;43.30;;;;;;5055363;28;20193;-87
2021/06/17 08:36:47;;;;;;;2.83;2.63;;;37.90;42.70;;;;;;5056043;28;20203;-88
2021/06/17 08:39:13;;;;;;;2.30;2.30;;;37.60;42.30;;;;;;5054858;28;20226;-87
2021/06/17 08:41:40;;;;;;;3.42;3.28;;;37.60;42.40;;;;;;5058891;28;20207;-87
2021/06/17 08:44:07;;;;;;;2.90;2.70;;;37.80;42.20;;;;;;5070710;28;20210;-86
2021/06/17 08:46:35;;;;;;;3.35;3.17;;;38.20;42.70;;;;;;5057952;28;20210;-86
2021/06/17 08:49:02;;;;;;;2.70;2.60;;;38.00;42.90;;;;;;5055859;28;20207;-87
2021/06/17 08:51:31;;;;;;;2.65;2.55;;;37.70;42.50;;;;;;5054962;28;20216;-87
2021/06/17 08:53:58;;;;;;;2.90;2.70;;;37.20;43.60;;;;;;5054931;28;20207;-87
2021/06/17 08:56:26;;;;;;;3.15;3.00;;;36.20;45.20;;;;;;5054833;28;20206;-85
2021/06/17 08:58:54;;;;;;;2.55;2.45;;;35.40;45.20;;;;;;5054739;28;20253;-86
2021/06/17 09:01:21;;;;;;;2.60;2.50;;;35.20;46.70;;;;;;5054571;28;20591;-86
2021/06/17 09:03:49;;;;;;;2.88;2.78;;;34.80;46.20;;;;;;5054800;28;20275;-83
2021/06/17 09:06:17;;;;;;;2.75;2.55;;;34.40;45.60;;;;;;5054691;28;20204;-84
2021/06/17 09:08:56;;;;;;;2.53;2.42;;;33.90;48.00;;;;;;5054674;28;20616;-86
2021/06/17 09:11:23;;;;;;;3.05;2.85;;;33.40;50.50;;;;;;5054682;28;20197;-86
2021/06/17 09:13:51;;;;;;;2.47;2.30;;;33.00;52.60;;;;;;5054491;28;20230;-87
2021/06/17 09:16:23;;;;;;;3.10;2.85;;;32.70;53.70;;;;;;5054587;28;20203;-86
2021/06/17 09:18:51;;;;;;;4.25;2.80;;;32.50;54.90;;;;;;5054405;28;20698;-84
2021/06/17 09:21:18;;;;;;;3.10;2.90;;;32.50;54.10;;;;;;5054097;28;20250;-86
2021/06/17 09:23:46;;;;;;;3.08;2.88;;;32.50;54.30;;;;;;5054287;28;20225;-88
2021/06/17 09:26:17;;;;;;;3.20;3.10;;;32.50;55.10;;;;;;5054323;28;20210;-86
2021/06/17 09:28:46;;;;;;;2.67;2.50;;;32.50;54.60;;;;;;5054575;28;20191;-87
2021/06/17 09:31:14;;;;;;;3.60;3.17;;;32.50;51.40;;;;;;5053795;28;20206;-87
2021/06/17 09:33:42;;;;;;;3.20;3.00;;;32.60;50.80;;;;;;5053895;28;20696;-87
2021/06/17 09:36:10;;;;;;;3.35;3.15;;;32.60;51.80;;;;;;5053951;28;20688;-87
2021/06/17 09:38:44;;;;;;;3.25;2.75;;;32.60;50.90;;;;;;5053646;28;20194;-86
2021/06/17 09:41:12;;;;;;;2.70;2.50;;;32.50;50.10;;;;;;5053728;28;20205;-87
2021/06/17 09:43:44;;;;;;;3.50;3.30;;;32.50;48.50;;;;;;5053941;28;20223;-87
2021/06/17 09:46:11;;;;;;;2.72;2.63;;;32.50;48.70;;;;;;5054155;28;20227;-87
2021/06/17 09:48:43;;;;;;;2.20;2.10;;;32.60;47.60;;;;;;5053960;28;20219;-82
2021/06/17 09:51:29;;;;;;;2.65;2.55;;;32.80;49.50;;;;;;5053918;28;20190;-82
2021/06/17 09:54:09;;;;;;;2.30;2.20;;;32.90;46.40;;;;;;5053830;28;20203;-83
2021/06/17 09:56:37;;;;;;;3.15;2.92;;;33.00;47.60;;;;;;5054241;28;20192;-83
2021/06/17 09:59:05;;;;;;;2.97;2.78;;;33.20;48.10;;;;;;5053483;28;20640;-83
2021/06/17 10:01:36;;;;;;;2.67;2.47;;;33.40;47.50;;;;;;5053260;28;20774;-82
2021/06/17 10:04:05;;;;;;;4.07;2.55;;;33.50;48.60;;;;;;5053913;28;20194;-87
2021/06/17 10:06:36;;;;;;;3.45;3.25;;;33.60;46.60;;;;;;5053476;28;20193;-88
2021/06/17 10:09:06;;;;;;;3.10;2.80;;;33.50;45.90;;;;;;5053480;28;20182;-88
2021/06/17 10:11:34;;;;;;;5.63;3.38;;;33.50;45.00;;;;;;5053537;28;20205;-87
2021/06/17 10:14:01;;;;;;;4.10;3.60;;;33.20;48.80;;;;;;5053605;28;20232;-87
2021/06/17 10:16:29;;;;;;;4.10;3.70;;;33.10;52.20;;;;;;5053719;28;20191;-88
2021/06/17 10:18:56;;;;;;;4.10;3.90;;;33.10;53.00;;;;;;5053534;28;20188;-87
2021/06/17 10:21:23;;;;;;;3.60;3.38;;;33.00;53.10;;;;;;5053310;28;20265;-87
2021/06/17 10:23:52;;;;;;;4.10;4.00;;;33.10;50.40;;;;;;5054212;28;20235;-87
2021/06/17 10:26:21;;;;;;;3.85;3.50;;;33.20;49.70;;;;;;5053469;28;20187;-88
2021/06/17 10:28:49;;;;;;;3.05;2.95;;;33.30;50.30;;;;;;5053491;28;20189;-88
2021/06/17 10:31:47;;;;;;;4.25;3.83;;;33.60;48.30;;;;;;5053760;28;20262;-88
2021/06/17 10:34:40;;;;;;;4.57;3.85;;;33.70;50.70;;;;;;5053447;28;20187;-87
2021/06/17 10:37:15;;;;;;;3.85;3.65;;;33.80;49.20;;;;;;5053403;28;20290;-88
2021/06/17 10:39:45;;;;;;;4.15;3.78;;;33.60;49.90;;;;;;5052881;28;20229;-87
2021/06/17 10:42:29;;;;;;;4.60;4.28;;;33.50;50.30;;;;;;5055114;28;20232;-89
2021/06/17 10:44:59;;;;;;;5.60;5.10;;;33.50;49.20;;;;;;5057547;28;20204;-88
2021/06/17 10:47:55;;;;;;;4.60;4.30;;;33.40;48.00;;;;;;5057105;28;20197;-88
2021/06/17 10:50:24;;;;;;;4.53;4.28;;;33.30;48.00;;;;;;5057401;28;20181;-88
2021/06/17 10:52:53;;;;;;;4.60;4.20;;;33.20;48.70;;;;;;5057190;28;20224;-86
2021/06/17 10:55:23;;;;;;;7.47;4.35;;;33.10;49.80;;;;;;5057379;28;20253;-88
2021/06/17 10:57:55;;;;;;;3.85;3.58;;;33.10;49.00;;;;;;5057007;28;20179;-88
2021/06/17 11:00:49;;;;;;;3.92;3.72;;;33.20;48.10;;;;;;5057215;28;20649;-88
2021/06/17 11:03:39;;;;;;;4.30;3.58;;;33.30;47.50;;;;;;5057044;28;20241;-88
2021/06/17 11:06:06;;;;;;;4.22;4.03;;;33.30;48.70;;;;;;5057193;28;20199;-87
2021/06/17 11:08:32;;;;;;;3.92;3.70;;;33.30;48.90;;;;;;5056825;28;20555;-85
2021/06/17 11:11:03;;;;;;;3.53;3.20;;;33.20;50.50;;;;;;5056989;28;20185;-85
2021/06/17 11:13:31;;;;;;;4.15;3.85;;;33.20;51.30;;;;;;5056572;28;20216;-85
2021/06/17 11:16:00;;;;;;;3.67;3.42;;;33.20;49.80;;;;;;5056866;28;20199;-85
2021/06/17 11:18:58;;;;;;;4.30;3.90;;;33.20;50.30;;;;;;5057253;28;20596;-84
2021/06/17 11:21:42;;;;;;;4.10;3.90;;;33.00;49.80;;;;;;5056488;28;20217;-85
2021/06/17 11:24:33;;;;;;;4.20;4.00;;;33.00;48.20;;;;;;5056738;28;20189;-87
2021/06/17 11:27:02;;;;;;;4.60;3.95;;;32.80;49.00;;;;;;5056877;28;20558;-87
2021/06/17 11:30:02;;;;;;;4.03;3.83;;;32.80;48.30;;;;;;5059413;28;20191;-85
2021/06/17 11:32:33;;;;;;;3.80;3.60;;;32.80;48.60;;;;;;4980410;28;20233;-86
2021/06/17 11:35:00;;;;;;;4.38;4.05;;;32.60;48.00;;;;;;4975833;28;20206;-83
2021/06/17 11:37:34;;;;;;;4.00;3.80;;;32.50;48.50;;;;;;5013896;28;20578;-84
2021/06/17 11:40:01;;;;;;;4.20;3.90;;;32.40;48.40;;;;;;5055782;28;20349;-83
2021/06/17 11:42:31;;;;;;;4.47;4.18;;;32.30;49.60;;;;;;5055986;28;20219;-83
2021/06/17 11:45:00;;;;;;;4.15;3.85;;;32.30;48.10;;;;;;5056058;28;20669;-84
2021/06/17 11:47:27;;;;;;;4.20;3.90;;;32.20;48.50;;;;;;5056326;28;20213;-83
2021/06/17 11:49:54;;;;;;;4.65;4.35;;;32.10;49.70;;;;;;5056168;28;20206;-85
2021/06/17 11:52:21;;;;;;;4.38;4.07;;;32.20;50.30;;;;;;5055652;28;20225;-86
2021/06/17 11:54:50;;;;;;;4.50;4.20;;;32.00;50.50;;;;;;5056119;28;20206;-86
2021/06/17 11:57:25;;;;;;;4.15;3.95;;;32.00;51.10;;;;;;5055723;28;20226;-86
2021/06/17 11:59:53;;;;;;;4.57;4.28;;;31.90;49.20;;;;;;5055976;28;20214;-81
2021/06/17 12:02:23;;;;;;;4.80;4.53;;;31.90;49.90;;;;;;5055546;28;20338;-82
2021/06/17 12:04:56;;;;;;;4.72;4.32;;;32.00;48.30;;;;;;5055957;28;20560;-82
2021/06/17 12:07:25;;;;;;;4.55;4.25;;;32.10;47.90;;;;;;5055816;28;20309;-82
2021/06/17 12:09:52;;;;;;;4.40;4.20;;;32.10;48.10;;;;;;5055794;28;20372;-82
2021/06/17 12:12:22;;;;;;;6.57;4.10;;;31.90;48.90;;;;;;5055489;28;20218;-82
2021/06/17 12:14:50;;;;;;;3.88;3.63;;;31.70;50.40;;;;;;5055403;28;20672;-82
2021/06/17 12:17:29;;;;;;;4.55;4.25;;;31.70;50.00;;;;;;5055376;28;20208;-86
2021/06/17 12:19:57;;;;;;;5.32;4.32;;;31.80;50.20;;;;;;5056037;28;20195;-86
2021/06/17 12:22:24;;;;;;;4.75;4.35;;;31.80;50.20;;;;;;5055508;28;20230;-83
2021/06/17 12:24:51;;;;;;;4.40;4.10;;;31.80;49.50;;;;;;5055221;28;20667;-83
2021/06/17 12:27:18;;;;;;;4.43;4.10;;;31.90;48.90;;;;;;5055251;28;20640;-83
2021/06/17 12:29:46;;;;;;;4.47;4.28;;;31.80;48.30;;;;;;5055151;28;20206;-85
2021/06/17 12:32:13;;;;;;;4.68;4.38;;;31.70;49.00;;;;;;5055504;28;20219;-83
2021/06/17 12:34:43;;;;;;;4.63;4.30;;;31.60;49.60;;;;;;5055079;28;20686;-84
2021/06/17 12:37:12;;;;;;;4.72;4.35;;;31.40;50.30;;;;;;5055756;28;20646;-80
2021/06/17 12:39:40;;;;;;;4.65;4.35;;;31.30;49.00;;;;;;5054764;28;20238;-85
2021/06/17 12:42:12;;;;;;;8.02;4.43;;;31.30;49.30;;;;;;5055050;28;20231;-85
2021/06/17 12:44:41;;;;;;;4.20;3.90;;;31.30;49.50;;;;;;5054817;28;20203;-85
2021/06/17 12:47:12;;;;;;;4.55;4.35;;;31.30;49.80;;;;;;5055041;28;20208;-86
2021/06/17 12:52:30;;;;;;;3.88;3.60;;;31.10;49.90;;;;;;5054763;28;20257;-85
2021/06/17 12:54:57;;;;;;;3.95;3.75;;;31.10;49.80;;;;;;5054807;28;20198;-84
2021/06/17 12:57:26;;;;;;;4.13;3.92;;;31.10;49.70;;;;;;5054576;28;20256;-85
2021/06/17 12:59:56;;;;;;;4.30;4.00;;;31.00;50.80;;;;;;5054883;28;20213;-84
2021/06/17 13:02:44;;;;;;;4.50;3.92;;;30.90;50.80;;;;;;5054688;28;20235;-84
2021/06/17 13:05:14;;;;;;;4.00;3.85;;;30.90;51.30;;;;;;5054057;28;20194;-84